sensor_id;sensor_type;location;lat;lon;timestamp;temperature;humidity
53314;DHT22;39202;51.468;7.146;2022-08-19T00:00:34;31.20;42.10
53314;DHT22;39202;51.468;7.146;2022-08-19T00:05:36;31.20;42.20
53314;DHT22;39202;51.468;7.146;2022-08-19T00:10:39;31.10;42.10
53314;DHT22;39202;51.468;7.146;2022-08-19T00:15:40;31.10;42.10
53314;DHT22;39202;51.468;7.146;2022-08-19T00:20:45;31.10;42.10
53314;DHT22;39202;51.468;7.146;2022-08-19T00:25:48;31.10;42.10
53314;DHT22;39202;51.468;7.146;2022-08-19T00:30:49;31.10;42.10
53314;DHT22;39202;51.468;7.146;2022-08-19T00:35:55;31.10;42.10
53314;DHT22;39202;51.468;7.146;2022-08-19T00:40:58;31.10;42.10
53314;DHT22;39202;51.468;7.146;2022-08-19T00:46:00;31.10;42.10
53314;DHT22;39202;51.468;7.146;2022-08-19T00:51:04;31.10;42.10
53314;DHT22;39202;51.468;7.146;2022-08-19T00:56:08;31.10;42.10
53314;DHT22;39202;51.468;7.146;2022-08-19T01:01:09;31.10;42.10
53314;DHT22;39202;51.468;7.146;2022-08-19T01:06:11;31.10;42.10
53314;DHT22;39202;51.468;7.146;2022-08-19T01:11:14;31.10;42.10
53314;DHT22;39202;51.468;7.146;2022-08-19T01:16:18;31.00;42.10
53314;DHT22;39202;51.468;7.146;2022-08-19T01:21:27;31.00;42.10
53314;DHT22;39202;51.468;7.146;2022-08-19T01:26:39;31.00;42.10
53314;DHT22;39202;51.468;7.146;2022-08-19T01:31:42;31.00;42.10
53314;DHT22;39202;51.468;7.146;2022-08-19T01:36:46;31.00;42.10
53314;DHT22;39202;51.468;7.146;2022-08-19T01:41:51;31.00;42.10
53314;DHT22;39202;51.468;7.146;2022-08-19T01:46:55;31.00;42.10
53314;DHT22;39202;51.468;7.146;2022-08-19T01:51:59;31.00;42.10
53314;DHT22;39202;51.468;7.146;2022-08-19T01:57:05;30.90;42.00
53314;DHT22;39202;51.468;7.146;2022-08-19T02:02:08;30.90;42.10
53314;DHT22;39202;51.468;7.146;2022-08-19T02:07:09;30.90;42.00
53314;DHT22;39202;51.468;7.146;2022-08-19T02:12:12;31.00;42.10
53314;DHT22;39202;51.468;7.146;2022-08-19T02:17:14;30.90;42.00
53314;DHT22;39202;51.468;7.146;2022-08-19T02:22:16;30.90;42.00
53314;DHT22;39202;51.468;7.146;2022-08-19T02:27:19;30.90;42.10
53314;DHT22;39202;51.468;7.146;2022-08-19T02:32:20;30.90;42.00
53314;DHT22;39202;51.468;7.146;2022-08-19T02:37:22;30.90;42.00
53314;DHT22;39202;51.468;7.146;2022-08-19T02:42:43;30.90;42.00
53314;DHT22;39202;51.468;7.146;2022-08-19T02:47:46;30.90;42.00
53314;DHT22;39202;51.468;7.146;2022-08-19T02:52:47;30.90;42.00
53314;DHT22;39202;51.468;7.146;2022-08-19T02:57:50;30.80;42.00
53314;DHT22;39202;51.468;7.146;2022-08-19T03:02:52;30.80;41.90
53314;DHT22;39202;51.468;7.146;2022-08-19T03:07:54;30.90;42.00
53314;DHT22;39202;51.468;7.146;2022-08-19T03:12:57;30.80;41.90
53314;DHT22;39202;51.468;7.146;2022-08-19T03:17:59;30.80;41.90
53314;DHT22;39202;51.468;7.146;2022-08-19T03:23:01;30.80;41.90
53314;DHT22;39202;51.468;7.146;2022-08-19T03:28:04;30.80;41.80
53314;DHT22;39202;51.468;7.146;2022-08-19T03:33:06;30.80;41.80
53314;DHT22;39202;51.468;7.146;2022-08-19T03:38:07;30.80;41.90
53314;DHT22;39202;51.468;7.146;2022-08-19T03:43:10;30.80;41.80
53314;DHT22;39202;51.468;7.146;2022-08-19T03:48:12;30.80;41.80
53314;DHT22;39202;51.468;7.146;2022-08-19T03:53:14;30.80;41.80
53314;DHT22;39202;51.468;7.146;2022-08-19T03:58:17;30.70;41.70
53314;DHT22;39202;51.468;7.146;2022-08-19T04:03:19;30.80;41.80
53314;DHT22;39202;51.468;7.146;2022-08-19T04:08:20;30.80;41.80
53314;DHT22;39202;51.468;7.146;2022-08-19T04:13:24;30.80;41.90
53314;DHT22;39202;51.468;7.146;2022-08-19T04:18:25;30.80;41.80
53314;DHT22;39202;51.468;7.146;2022-08-19T04:23:30;30.80;41.80
53314;DHT22;39202;51.468;7.146;2022-08-19T04:28:33;30.70;41.70
53314;DHT22;39202;51.468;7.146;2022-08-19T04:33:36;30.70;41.70
53314;DHT22;39202;51.468;7.146;2022-08-19T04:38:38;30.70;41.70
53314;DHT22;39202;51.468;7.146;2022-08-19T04:43:41;30.70;41.80
53314;DHT22;39202;51.468;7.146;2022-08-19T04:48:44;30.70;41.80
53314;DHT22;39202;51.468;7.146;2022-08-19T04:53:46;30.70;41.80
53314;DHT22;39202;51.468;7.146;2022-08-19T04:58:49;30.70;41.90
53314;DHT22;39202;51.468;7.146;2022-08-19T05:03:52;30.70;42.10
53314;DHT22;39202;51.468;7.146;2022-08-19T05:08:54;30.70;42.10
53314;DHT22;39202;51.468;7.146;2022-08-19T05:13:57;30.70;42.20
53314;DHT22;39202;51.468;7.146;2022-08-19T05:18:59;30.70;42.30
53314;DHT22;39202;51.468;7.146;2022-08-19T05:24:20;30.70;42.30
53314;DHT22;39202;51.468;7.146;2022-08-19T05:29:25;30.70;42.40
53314;DHT22;39202;51.468;7.146;2022-08-19T05:34:28;30.70;42.50
53314;DHT22;39202;51.468;7.146;2022-08-19T05:39:32;30.70;42.50
53314;DHT22;39202;51.468;7.146;2022-08-19T05:44:38;30.70;42.60
53314;DHT22;39202;51.468;7.146;2022-08-19T05:49:40;30.70;42.60
53314;DHT22;39202;51.468;7.146;2022-08-19T05:54:42;30.70;42.60
53314;DHT22;39202;51.468;7.146;2022-08-19T05:59:46;30.70;42.70
53314;DHT22;39202;51.468;7.146;2022-08-19T06:04:48;30.70;42.70
53314;DHT22;39202;51.468;7.146;2022-08-19T06:09:50;30.70;42.80
53314;DHT22;39202;51.468;7.146;2022-08-19T06:14:54;30.70;42.80
53314;DHT22;39202;51.468;7.146;2022-08-19T06:19:56;30.70;42.90
53314;DHT22;39202;51.468;7.146;2022-08-19T06:24:58;30.70;42.90
53314;DHT22;39202;51.468;7.146;2022-08-19T06:30:02;30.80;43.00
53314;DHT22;39202;51.468;7.146;2022-08-19T06:35:05;30.80;43.00
53314;DHT22;39202;51.468;7.146;2022-08-19T06:40:07;30.80;43.00
53314;DHT22;39202;51.468;7.146;2022-08-19T06:45:12;30.90;43.00
53314;DHT22;39202;51.468;7.146;2022-08-19T06:50:15;30.90;43.00
53314;DHT22;39202;51.468;7.146;2022-08-19T06:55:17;30.90;42.90
53314;DHT22;39202;51.468;7.146;2022-08-19T07:00:20;31.00;43.00
53314;DHT22;39202;51.468;7.146;2022-08-19T07:05:21;31.10;43.00
53314;DHT22;39202;51.468;7.146;2022-08-19T07:10:23;31.10;42.90
53314;DHT22;39202;51.468;7.146;2022-08-19T07:15:26;31.10;43.00
53314;DHT22;39202;51.468;7.146;2022-08-19T07:20:28;31.10;43.00
53314;DHT22;39202;51.468;7.146;2022-08-19T07:25:30;31.10;42.90
53314;DHT22;39202;51.468;7.146;2022-08-19T07:30:36;31.10;43.00
53314;DHT22;39202;51.468;7.146;2022-08-19T07:35:38;31.20;43.10
53314;DHT22;39202;51.468;7.146;2022-08-19T07:40:40;31.20;43.00
53314;DHT22;39202;51.468;7.146;2022-08-19T07:45:43;31.30;43.10
53314;DHT22;39202;51.468;7.146;2022-08-19T07:50:44;31.30;43.10
53314;DHT22;39202;51.468;7.146;2022-08-19T07:55:46;31.30;43.00
53314;DHT22;39202;51.468;7.146;2022-08-19T08:00:50;31.40;43.20
53314;DHT22;39202;51.468;7.146;2022-08-19T08:05:52;31.50;43.10
53314;DHT22;39202;51.468;7.146;2022-08-19T08:11:12;31.50;43.10
53314;DHT22;39202;51.468;7.146;2022-08-19T08:16:15;31.60;43.10
53314;DHT22;39202;51.468;7.146;2022-08-19T08:21:17;31.60;43.10
53314;DHT22;39202;51.468;7.146;2022-08-19T08:26:18;31.60;43.10
53314;DHT22;39202;51.468;7.146;2022-08-19T08:31:22;31.70;43.10
53314;DHT22;39202;51.468;7.146;2022-08-19T08:36:24;31.70;43.10
53314;DHT22;39202;51.468;7.146;2022-08-19T08:41:30;31.80;43.10
53314;DHT22;39202;51.468;7.146;2022-08-19T08:46:37;31.80;43.10
53314;DHT22;39202;51.468;7.146;2022-08-19T08:51:43;31.90;43.20
53314;DHT22;39202;51.468;7.146;2022-08-19T08:56:47;31.90;43.20
53314;DHT22;39202;51.468;7.146;2022-08-19T09:01:52;31.90;43.20
53314;DHT22;39202;51.468;7.146;2022-08-19T09:07:01;31.90;43.20
53314;DHT22;39202;51.468;7.146;2022-08-19T09:12:14;32.00;43.20
53314;DHT22;39202;51.468;7.146;2022-08-19T09:17:25;32.10;43.20
53314;DHT22;39202;51.468;7.146;2022-08-19T09:22:31;32.10;43.00
53314;DHT22;39202;51.468;7.146;2022-08-19T09:27:32;32.10;43.00
53314;DHT22;39202;51.468;7.146;2022-08-19T09:32:38;32.10;42.90
53314;DHT22;39202;51.468;7.146;2022-08-19T09:37:42;32.20;42.80
53314;DHT22;39202;51.468;7.146;2022-08-19T09:42:44;32.10;42.70
53314;DHT22;39202;51.468;7.146;2022-08-19T09:47:49;32.10;42.70
53314;DHT22;39202;51.468;7.146;2022-08-19T09:52:51;32.10;42.70
53314;DHT22;39202;51.468;7.146;2022-08-19T09:57:57;32.00;42.60
53314;DHT22;39202;51.468;7.146;2022-08-19T10:03:00;32.00;42.60
53314;DHT22;39202;51.468;7.146;2022-08-19T10:08:02;31.90;42.60
53314;DHT22;39202;51.468;7.146;2022-08-19T10:13:04;31.80;42.60
53314;DHT22;39202;51.468;7.146;2022-08-19T10:18:07;31.80;42.70
53314;DHT22;39202;51.468;7.146;2022-08-19T10:23:10;31.80;42.60
53314;DHT22;39202;51.468;7.146;2022-08-19T10:28:11;31.80;42.50
53314;DHT22;39202;51.468;7.146;2022-08-19T10:33:14;31.70;42.40
53314;DHT22;39202;51.468;7.146;2022-08-19T10:38:16;31.70;42.40
53314;DHT22;39202;51.468;7.146;2022-08-19T10:43:18;31.70;42.40
53314;DHT22;39202;51.468;7.146;2022-08-19T10:48:21;31.70;42.40
53314;DHT22;39202;51.468;7.146;2022-08-19T10:53:22;31.70;42.30
53314;DHT22;39202;51.468;7.146;2022-08-19T10:58:26;31.70;42.30
53314;DHT22;39202;51.468;7.146;2022-08-19T11:03:29;31.70;42.20
53314;DHT22;39202;51.468;7.146;2022-08-19T11:08:31;31.60;42.10
53314;DHT22;39202;51.468;7.146;2022-08-19T11:13:35;31.60;42.30
53314;DHT22;39202;51.468;7.146;2022-08-19T11:18:41;31.60;42.30
53314;DHT22;39202;51.468;7.146;2022-08-19T11:23:44;31.60;42.10
53314;DHT22;39202;51.468;7.146;2022-08-19T11:28:46;31.60;42.10
53314;DHT22;39202;51.468;7.146;2022-08-19T11:33:50;31.60;42.00
53314;DHT22;39202;51.468;7.146;2022-08-19T11:38:53;31.60;42.00
53314;DHT22;39202;51.468;7.146;2022-08-19T11:43:55;31.60;42.00
53314;DHT22;39202;51.468;7.146;2022-08-19T11:49:00;31.60;41.90
53314;DHT22;39202;51.468;7.146;2022-08-19T11:54:05;31.60;41.70
53314;DHT22;39202;51.468;7.146;2022-08-19T11:59:07;31.60;41.50
53314;DHT22;39202;51.468;7.146;2022-08-19T12:04:11;31.60;41.60
53314;DHT22;39202;51.468;7.146;2022-08-19T12:09:13;31.60;41.60
53314;DHT22;39202;51.468;7.146;2022-08-19T12:14:15;31.60;41.50
53314;DHT22;39202;51.468;7.146;2022-08-19T12:19:19;31.60;41.40
53314;DHT22;39202;51.468;7.146;2022-08-19T12:24:21;31.60;41.20
53314;DHT22;39202;51.468;7.146;2022-08-19T12:29:24;31.60;41.20
53314;DHT22;39202;51.468;7.146;2022-08-19T12:34:32;31.70;41.10
53314;DHT22;39202;51.468;7.146;2022-08-19T12:39:35;31.60;40.80
53314;DHT22;39202;51.468;7.146;2022-08-19T12:44:39;31.70;40.70
53314;DHT22;39202;51.468;7.146;2022-08-19T12:49:43;31.70;40.50
53314;DHT22;39202;51.468;7.146;2022-08-19T12:54:46;31.60;40.50
53314;DHT22;39202;51.468;7.146;2022-08-19T12:59:51;31.70;40.40
53314;DHT22;39202;51.468;7.146;2022-08-19T13:04:55;31.70;40.30
53314;DHT22;39202;51.468;7.146;2022-08-19T13:09:57;31.70;40.40
53314;DHT22;39202;51.468;7.146;2022-08-19T13:14:59;31.70;40.30
53314;DHT22;39202;51.468;7.146;2022-08-19T13:20:03;31.70;40.20
53314;DHT22;39202;51.468;7.146;2022-08-19T13:25:06;31.70;40.00
53314;DHT22;39202;51.468;7.146;2022-08-19T13:30:11;31.70;39.90
53314;DHT22;39202;51.468;7.146;2022-08-19T13:35:32;31.80;40.00
53314;DHT22;39202;51.468;7.146;2022-08-19T13:40:34;31.80;39.90
53314;DHT22;39202;51.468;7.146;2022-08-19T13:45:36;31.80;39.80
53314;DHT22;39202;51.468;7.146;2022-08-19T13:50:41;31.80;39.70
53314;DHT22;39202;51.468;7.146;2022-08-19T13:55:43;31.80;39.60
53314;DHT22;39202;51.468;7.146;2022-08-19T14:00:46;31.80;39.50
53314;DHT22;39202;51.468;7.146;2022-08-19T14:05:49;31.70;39.40
53314;DHT22;39202;51.468;7.146;2022-08-19T14:10:51;31.70;39.50
53314;DHT22;39202;51.468;7.146;2022-08-19T14:15:53;31.70;39.50
53314;DHT22;39202;51.468;7.146;2022-08-19T14:20:56;31.70;39.40
53314;DHT22;39202;51.468;7.146;2022-08-19T14:26:05;31.70;39.20
53314;DHT22;39202;51.468;7.146;2022-08-19T14:31:07;31.70;39.10
53314;DHT22;39202;51.468;7.146;2022-08-19T14:36:10;31.70;39.30
53314;DHT22;39202;51.468;7.146;2022-08-19T14:41:14;31.60;39.20
53314;DHT22;39202;51.468;7.146;2022-08-19T14:46:19;31.60;39.20
53314;DHT22;39202;51.468;7.146;2022-08-19T14:51:24;31.60;39.10
53314;DHT22;39202;51.468;7.146;2022-08-19T14:56:28;31.60;39.20
53314;DHT22;39202;51.468;7.146;2022-08-19T15:01:30;31.60;39.20
53314;DHT22;39202;51.468;7.146;2022-08-19T15:06:33;31.50;39.20
53314;DHT22;39202;51.468;7.146;2022-08-19T15:11:35;31.60;39.20
53314;DHT22;39202;51.468;7.146;2022-08-19T15:16:38;31.60;39.00
53314;DHT22;39202;51.468;7.146;2022-08-19T15:21:43;31.60;39.10
53314;DHT22;39202;51.468;7.146;2022-08-19T15:26:45;31.60;39.00
53314;DHT22;39202;51.468;7.146;2022-08-19T15:31:46;31.60;39.00
53314;DHT22;39202;51.468;7.146;2022-08-19T15:36:50;31.60;39.00
53314;DHT22;39202;51.468;7.146;2022-08-19T15:41:51;31.60;38.90
53314;DHT22;39202;51.468;7.146;2022-08-19T15:46:53;31.50;39.00
53314;DHT22;39202;51.468;7.146;2022-08-19T15:51:56;31.50;39.00
53314;DHT22;39202;51.468;7.146;2022-08-19T15:56:59;31.10;38.80
53314;DHT22;39202;51.468;7.146;2022-08-19T16:02:20;31.50;39.10
53314;DHT22;39202;51.468;7.146;2022-08-19T16:07:41;31.50;39.10
53314;DHT22;39202;51.468;7.146;2022-08-19T16:12:43;31.50;39.00
53314;DHT22;39202;51.468;7.146;2022-08-19T16:17:44;31.50;39.10
53314;DHT22;39202;51.468;7.146;2022-08-19T16:22:48;31.50;39.00
53314;DHT22;39202;51.468;7.146;2022-08-19T16:27:50;31.50;38.70
53314;DHT22;39202;51.468;7.146;2022-08-19T16:32:53;31.50;38.60
53314;DHT22;39202;51.468;7.146;2022-08-19T16:37:56;31.50;38.50
53314;DHT22;39202;51.468;7.146;2022-08-19T16:42:59;31.50;38.30
53314;DHT22;39202;51.468;7.146;2022-08-19T16:48:02;31.50;38.30
53314;DHT22;39202;51.468;7.146;2022-08-19T16:53:06;31.50;38.30
53314;DHT22;39202;51.468;7.146;2022-08-19T16:58:08;31.50;38.20
53314;DHT22;39202;51.468;7.146;2022-08-19T17:03:10;31.40;38.10
53314;DHT22;39202;51.468;7.146;2022-08-19T17:08:14;31.50;38.20
53314;DHT22;39202;51.468;7.146;2022-08-19T17:13:17;31.40;38.10
53314;DHT22;39202;51.468;7.146;2022-08-19T17:18:19;31.40;38.10
53314;DHT22;39202;51.468;7.146;2022-08-19T17:23:23;31.40;38.20
53314;DHT22;39202;51.468;7.146;2022-08-19T17:28:28;31.40;38.20
53314;DHT22;39202;51.468;7.146;2022-08-19T17:33:30;31.40;38.40
53314;DHT22;39202;51.468;7.146;2022-08-19T17:38:33;31.40;38.50
53314;DHT22;39202;51.468;7.146;2022-08-19T17:43:36;31.40;38.60
53314;DHT22;39202;51.468;7.146;2022-08-19T17:48:39;31.40;38.70
53314;DHT22;39202;51.468;7.146;2022-08-19T17:53:44;31.40;38.70
53314;DHT22;39202;51.468;7.146;2022-08-19T17:58:45;31.40;38.70
53314;DHT22;39202;51.468;7.146;2022-08-19T18:03:48;31.40;38.70
53314;DHT22;39202;51.468;7.146;2022-08-19T18:08:51;31.40;38.80
53314;DHT22;39202;51.468;7.146;2022-08-19T18:13:53;31.40;38.80
53314;DHT22;39202;51.468;7.146;2022-08-19T18:18:54;31.40;38.80
53314;DHT22;39202;51.468;7.146;2022-08-19T18:23:58;31.40;38.90
53314;DHT22;39202;51.468;7.146;2022-08-19T18:29:00;31.40;38.90
53314;DHT22;39202;51.468;7.146;2022-08-19T18:34:02;31.40;39.00
53314;DHT22;39202;51.468;7.146;2022-08-19T18:39:05;31.40;38.90
53314;DHT22;39202;51.468;7.146;2022-08-19T18:44:25;31.40;38.90
53314;DHT22;39202;51.468;7.146;2022-08-19T18:49:44;31.40;39.00
53314;DHT22;39202;51.468;7.146;2022-08-19T18:54:47;31.40;39.00
53314;DHT22;39202;51.468;7.146;2022-08-19T18:59:49;31.30;39.10
53314;DHT22;39202;51.468;7.146;2022-08-19T19:04:51;31.30;39.30
53314;DHT22;39202;51.468;7.146;2022-08-19T19:09:56;31.30;39.30
53314;DHT22;39202;51.468;7.146;2022-08-19T19:14:57;31.30;39.40
53314;DHT22;39202;51.468;7.146;2022-08-19T19:20:04;31.30;39.50
53314;DHT22;39202;51.468;7.146;2022-08-19T19:25:07;31.30;39.60
53314;DHT22;39202;51.468;7.146;2022-08-19T19:30:11;31.30;39.70
53314;DHT22;39202;51.468;7.146;2022-08-19T19:35:13;31.30;39.70
53314;DHT22;39202;51.468;7.146;2022-08-19T19:40:16;31.30;39.80
53314;DHT22;39202;51.468;7.146;2022-08-19T19:45:18;31.30;39.90
53314;DHT22;39202;51.468;7.146;2022-08-19T19:50:20;31.30;39.90
53314;DHT22;39202;51.468;7.146;2022-08-19T19:55:23;31.40;40.00
53314;DHT22;39202;51.468;7.146;2022-08-19T20:00:26;31.30;40.10
53314;DHT22;39202;51.468;7.146;2022-08-19T20:05:28;31.30;40.10
53314;DHT22;39202;51.468;7.146;2022-08-19T20:10:31;31.40;40.20
53314;DHT22;39202;51.468;7.146;2022-08-19T20:15:33;31.40;40.30
53314;DHT22;39202;51.468;7.146;2022-08-19T20:20:35;31.40;40.30
53314;DHT22;39202;51.468;7.146;2022-08-19T20:25:38;31.40;40.40
53314;DHT22;39202;51.468;7.146;2022-08-19T20:30:41;31.40;40.50
53314;DHT22;39202;51.468;7.146;2022-08-19T20:35:43;31.40;40.50
53314;DHT22;39202;51.468;7.146;2022-08-19T20:40:47;31.40;40.60
53314;DHT22;39202;51.468;7.146;2022-08-19T20:45:48;31.40;40.60
53314;DHT22;39202;51.468;7.146;2022-08-19T20:50:50;31.40;40.60
53314;DHT22;39202;51.468;7.146;2022-08-19T20:55:53;31.40;40.70
53314;DHT22;39202;51.468;7.146;2022-08-19T21:00:58;31.40;40.70
53314;DHT22;39202;51.468;7.146;2022-08-19T21:06:00;31.40;40.90
53314;DHT22;39202;51.468;7.146;2022-08-19T21:11:05;31.40;40.80
53314;DHT22;39202;51.468;7.146;2022-08-19T21:16:07;31.40;40.90
53314;DHT22;39202;51.468;7.146;2022-08-19T21:21:09;31.40;40.90
53314;DHT22;39202;51.468;7.146;2022-08-19T21:26:12;31.40;40.90
53314;DHT22;39202;51.468;7.146;2022-08-19T21:31:13;31.40;41.00
53314;DHT22;39202;51.468;7.146;2022-08-19T21:36:17;31.40;41.00
53314;DHT22;39202;51.468;7.146;2022-08-19T21:41:20;31.40;41.00
53314;DHT22;39202;51.468;7.146;2022-08-19T21:46:21;31.40;41.00
53314;DHT22;39202;51.468;7.146;2022-08-19T21:51:23;31.40;41.10
53314;DHT22;39202;51.468;7.146;2022-08-19T21:56:26;31.40;41.10
53314;DHT22;39202;51.468;7.146;2022-08-19T22:01:28;31.40;41.20
53314;DHT22;39202;51.468;7.146;2022-08-19T22:06:30;31.40;41.30
53314;DHT22;39202;51.468;7.146;2022-08-19T22:11:33;31.40;41.30
53314;DHT22;39202;51.468;7.146;2022-08-19T22:16:35;31.40;41.40
53314;DHT22;39202;51.468;7.146;2022-08-19T22:21:37;31.40;41.40
53314;DHT22;39202;51.468;7.146;2022-08-19T22:26:40;31.40;41.50
53314;DHT22;39202;51.468;7.146;2022-08-19T22:31:42;31.40;41.50
53314;DHT22;39202;51.468;7.146;2022-08-19T22:36:44;31.40;41.60
53314;DHT22;39202;51.468;7.146;2022-08-19T22:41:47;31.40;41.60
53314;DHT22;39202;51.468;7.146;2022-08-19T22:46:49;31.40;41.70
53314;DHT22;39202;51.468;7.146;2022-08-19T22:51:50;31.40;41.80
53314;DHT22;39202;51.468;7.146;2022-08-19T22:57:11;31.40;41.80
53314;DHT22;39202;51.468;7.146;2022-08-19T23:02:17;31.40;42.00
53314;DHT22;39202;51.468;7.146;2022-08-19T23:07:20;31.40;42.10
53314;DHT22;39202;51.468;7.146;2022-08-19T23:12:30;30.90;42.00
53314;DHT22;39202;51.468;7.146;2022-08-19T23:17:32;31.40;42.50
53314;DHT22;39202;51.468;7.146;2022-08-19T23:22:36;31.40;42.50
53314;DHT22;39202;51.468;7.146;2022-08-19T23:27:40;31.40;42.70
53314;DHT22;39202;51.468;7.146;2022-08-19T23:33:02;31.40;42.70
53314;DHT22;39202;51.468;7.146;2022-08-19T23:38:07;31.40;42.90
53314;DHT22;39202;51.468;7.146;2022-08-19T23:43:10;31.40;43.00
53314;DHT22;39202;51.468;7.146;2022-08-19T23:48:12;31.40;43.20
53314;DHT22;39202;51.468;7.146;2022-08-19T23:53:14;31.40;43.30
53314;DHT22;39202;51.468;7.146;2022-08-19T23:58:18;31.40;43.40
